sensor_id;sensor_type;location;lat;lon;timestamp;P1;durP1;ratioP1;P2;durP2;ratioP2
7985;SDS011;4038;42.612;23.066;2023-03-31T00:02:09;23.23;;;20.77;;
7985;SDS011;4038;42.612;23.066;2023-03-31T00:04:40;24.92;;;21.60;;
7985;SDS011;4038;42.612;23.066;2023-03-31T00:07:10;27.77;;;21.85;;
7985;SDS011;4038;42.612;23.066;2023-03-31T00:09:35;27.60;;;23.10;;
7985;SDS011;4038;42.612;23.066;2023-03-31T00:12:01;23.08;;;20.98;;
7985;SDS011;4038;42.612;23.066;2023-03-31T00:14:26;24.10;;;21.05;;
7985;SDS011;4038;42.612;23.066;2023-03-31T00:16:51;27.80;;;23.20;;
7985;SDS011;4038;42.612;23.066;2023-03-31T00:19:16;27.80;;;23.63;;
7985;SDS011;4038;42.612;23.066;2023-03-31T00:21:45;25.67;;;21.67;;
7985;SDS011;4038;42.612;23.066;2023-03-31T00:24:11;24.38;;;21.92;;
7985;SDS011;4038;42.612;23.066;2023-03-31T00:26:37;29.02;;;23.50;;
7985;SDS011;4038;42.612;23.066;2023-03-31T00:29:03;26.10;;;23.83;;
7985;SDS011;4038;42.612;23.066;2023-03-31T00:31:28;39.63;;;31.50;;
7985;SDS011;4038;42.612;23.066;2023-03-31T00:33:54;25.35;;;21.77;;
7985;SDS011;4038;42.612;23.066;2023-03-31T00:36:20;35.47;;;23.15;;
7985;SDS011;4038;42.612;23.066;2023-03-31T00:38:51;26.83;;;23.13;;
7985;SDS011;4038;42.612;23.066;2023-03-31T00:41:16;29.27;;;21.75;;
7985;SDS011;4038;42.612;23.066;2023-03-31T00:46:42;26.23;;;23.38;;
7985;SDS011;4038;42.612;23.066;2023-03-31T00:49:16;26.60;;;22.25;;
7985;SDS011;4038;42.612;23.066;2023-03-31T00:51:44;22.77;;;20.63;;
7985;SDS011;4038;42.612;23.066;2023-03-31T00:54:10;22.35;;;20.15;;
7985;SDS011;4038;42.612;23.066;2023-03-31T00:56:37;23.17;;;21.17;;
7985;SDS011;4038;42.612;23.066;2023-03-31T00:59:05;23.17;;;20.83;;
7985;SDS011;4038;42.612;23.066;2023-03-31T01:01:32;22.38;;;20.20;;
7985;SDS011;4038;42.612;23.066;2023-03-31T01:03:59;21.67;;;19.67;;
7985;SDS011;4038;42.612;23.066;2023-03-31T01:06:26;22.88;;;20.80;;
7985;SDS011;4038;42.612;23.066;2023-03-31T01:08:55;33.03;;;22.15;;
7985;SDS011;4038;42.612;23.066;2023-03-31T01:11:21;22.75;;;20.30;;
7985;SDS011;4038;42.612;23.066;2023-03-31T01:13:47;22.20;;;20.33;;
7985;SDS011;4038;42.612;23.066;2023-03-31T01:16:15;23.13;;;21.05;;
7985;SDS011;4038;42.612;23.066;2023-03-31T01:18:40;22.83;;;20.83;;
7985;SDS011;4038;42.612;23.066;2023-03-31T01:21:20;24.35;;;22.33;;
7985;SDS011;4038;42.612;23.066;2023-03-31T01:41:37;23.23;;;21.45;;
7985;SDS011;4038;42.612;23.066;2023-03-31T01:44:10;22.45;;;20.95;;
7985;SDS011;4038;42.612;23.066;2023-03-31T01:46:40;22.05;;;20.35;;
7985;SDS011;4038;42.612;23.066;2023-03-31T01:49:25;23.23;;;21.73;;
7985;SDS011;4038;42.612;23.066;2023-03-31T01:59:36;22.75;;;21.08;;
7985;SDS011;4038;42.612;23.066;2023-03-31T02:02:22;22.02;;;20.40;;
7985;SDS011;4038;42.612;23.066;2023-03-31T02:04:55;23.80;;;21.65;;
7985;SDS011;4038;42.612;23.066;2023-03-31T02:07:25;23.70;;;21.60;;
7985;SDS011;4038;42.612;23.066;2023-03-31T02:09:57;23.45;;;21.65;;
7985;SDS011;4038;42.612;23.066;2023-03-31T02:12:25;25.05;;;23.00;;
7985;SDS011;4038;42.612;23.066;2023-03-31T02:14:51;24.42;;;22.23;;
7985;SDS011;4038;42.612;23.066;2023-03-31T02:17:19;23.17;;;21.27;;
7985;SDS011;4038;42.612;23.066;2023-03-31T02:19:48;24.05;;;22.35;;
7985;SDS011;4038;42.612;23.066;2023-03-31T02:22:14;24.45;;;22.58;;
7985;SDS011;4038;42.612;23.066;2023-03-31T02:24:40;24.95;;;22.95;;
7985;SDS011;4038;42.612;23.066;2023-03-31T02:27:07;24.98;;;23.17;;
7985;SDS011;4038;42.612;23.066;2023-03-31T02:29:33;25.30;;;23.33;;
7985;SDS011;4038;42.612;23.066;2023-03-31T02:34:39;28.13;;;26.03;;
7985;SDS011;4038;42.612;23.066;2023-03-31T02:37:04;32.05;;;29.60;;
7985;SDS011;4038;42.612;23.066;2023-03-31T02:39:33;34.35;;;31.85;;
7985;SDS011;4038;42.612;23.066;2023-03-31T02:41:58;31.02;;;28.25;;
7985;SDS011;4038;42.612;23.066;2023-03-31T02:44:26;34.10;;;30.97;;
7985;SDS011;4038;42.612;23.066;2023-03-31T02:46:51;31.20;;;28.53;;
7985;SDS011;4038;42.612;23.066;2023-03-31T02:49:17;30.70;;;28.20;;
7985;SDS011;4038;42.612;23.066;2023-03-31T02:54:39;38.53;;;29.10;;
7985;SDS011;4038;42.612;23.066;2023-03-31T03:07:33;28.67;;;23.90;;
7985;SDS011;4038;42.612;23.066;2023-03-31T03:12:30;27.57;;;24.40;;
7985;SDS011;4038;42.612;23.066;2023-03-31T03:17:32;24.63;;;22.42;;
7985;SDS011;4038;42.612;23.066;2023-03-31T03:19:59;24.43;;;22.20;;
7985;SDS011;4038;42.612;23.066;2023-03-31T03:22:25;27.90;;;22.90;;
7985;SDS011;4038;42.612;23.066;2023-03-31T03:24:50;24.10;;;21.83;;
7985;SDS011;4038;42.612;23.066;2023-03-31T03:27:16;24.83;;;22.23;;
7985;SDS011;4038;42.612;23.066;2023-03-31T03:29:41;23.97;;;21.87;;
7985;SDS011;4038;42.612;23.066;2023-03-31T03:32:08;24.13;;;22.10;;
7985;SDS011;4038;42.612;23.066;2023-03-31T03:34:33;22.80;;;20.90;;
7985;SDS011;4038;42.612;23.066;2023-03-31T03:36:58;26.77;;;23.98;;
7985;SDS011;4038;42.612;23.066;2023-03-31T03:39:23;22.70;;;20.97;;
7985;SDS011;4038;42.612;23.066;2023-03-31T03:41:49;23.53;;;21.47;;
7985;SDS011;4038;42.612;23.066;2023-03-31T03:44:14;23.23;;;21.27;;
7985;SDS011;4038;42.612;23.066;2023-03-31T03:46:39;23.20;;;21.40;;
7985;SDS011;4038;42.612;23.066;2023-03-31T03:49:05;23.42;;;21.65;;
7985;SDS011;4038;42.612;23.066;2023-03-31T03:51:30;23.52;;;21.55;;
7985;SDS011;4038;42.612;23.066;2023-03-31T03:53:55;23.52;;;21.95;;
7985;SDS011;4038;42.612;23.066;2023-03-31T03:56:21;21.77;;;20.17;;
7985;SDS011;4038;42.612;23.066;2023-03-31T03:58:46;22.65;;;21.08;;
7985;SDS011;4038;42.612;23.066;2023-03-31T04:01:11;22.77;;;21.10;;
7985;SDS011;4038;42.612;23.066;2023-03-31T04:03:37;24.33;;;22.63;;
7985;SDS011;4038;42.612;23.066;2023-03-31T04:06:02;23.20;;;21.37;;
7985;SDS011;4038;42.612;23.066;2023-03-31T04:08:27;24.33;;;22.20;;
7985;SDS011;4038;42.612;23.066;2023-03-31T04:10:52;23.92;;;22.05;;
7985;SDS011;4038;42.612;23.066;2023-03-31T04:13:18;28.25;;;23.00;;
7985;SDS011;4038;42.612;23.066;2023-03-31T04:15:43;25.47;;;22.90;;
7985;SDS011;4038;42.612;23.066;2023-03-31T04:18:09;26.95;;;24.15;;
7985;SDS011;4038;42.612;23.066;2023-03-31T04:20:37;32.58;;;24.25;;
7985;SDS011;4038;42.612;23.066;2023-03-31T04:23:03;34.35;;;24.98;;
7985;SDS011;4038;42.612;23.066;2023-03-31T04:25:30;28.08;;;22.48;;
7985;SDS011;4038;42.612;23.066;2023-03-31T04:27:55;25.02;;;22.60;;
7985;SDS011;4038;42.612;23.066;2023-03-31T04:30:21;27.58;;;23.08;;
7985;SDS011;4038;42.612;23.066;2023-03-31T04:35:15;28.40;;;23.70;;
7985;SDS011;4038;42.612;23.066;2023-03-31T04:37:42;45.00;;;24.83;;
7985;SDS011;4038;42.612;23.066;2023-03-31T04:40:07;27.52;;;24.35;;
7985;SDS011;4038;42.612;23.066;2023-03-31T04:42:34;34.65;;;24.92;;
7985;SDS011;4038;42.612;23.066;2023-03-31T04:44:59;42.53;;;24.58;;
7985;SDS011;4038;42.612;23.066;2023-03-31T04:47:25;44.10;;;27.83;;
7985;SDS011;4038;42.612;23.066;2023-03-31T04:49:50;40.30;;;26.77;;
7985;SDS011;4038;42.612;23.066;2023-03-31T04:52:15;27.63;;;24.67;;
7985;SDS011;4038;42.612;23.066;2023-03-31T04:54:41;26.70;;;22.33;;
7985;SDS011;4038;42.612;23.066;2023-03-31T04:57:06;28.50;;;22.85;;
7985;SDS011;4038;42.612;23.066;2023-03-31T04:59:31;26.95;;;24.33;;
7985;SDS011;4038;42.612;23.066;2023-03-31T05:01:56;23.67;;;21.67;;
7985;SDS011;4038;42.612;23.066;2023-03-31T05:04:22;25.30;;;22.83;;
7985;SDS011;4038;42.612;23.066;2023-03-31T05:06:47;24.23;;;22.33;;
7985;SDS011;4038;42.612;23.066;2023-03-31T05:09:12;24.70;;;22.13;;
7985;SDS011;4038;42.612;23.066;2023-03-31T05:11:37;27.10;;;22.23;;
7985;SDS011;4038;42.612;23.066;2023-03-31T05:14:03;23.10;;;21.33;;
7985;SDS011;4038;42.612;23.066;2023-03-31T05:16:28;25.20;;;22.07;;
7985;SDS011;4038;42.612;23.066;2023-03-31T05:18:53;27.10;;;22.93;;
7985;SDS011;4038;42.612;23.066;2023-03-31T05:21:19;26.23;;;22.17;;
7985;SDS011;4038;42.612;23.066;2023-03-31T05:23:45;36.40;;;24.60;;
7985;SDS011;4038;42.612;23.066;2023-03-31T05:26:11;42.38;;;25.75;;
7985;SDS011;4038;42.612;23.066;2023-03-31T05:28:37;35.45;;;24.33;;
7985;SDS011;4038;42.612;23.066;2023-03-31T05:31:03;29.10;;;24.02;;
7985;SDS011;4038;42.612;23.066;2023-03-31T05:33:29;23.83;;;21.48;;
7985;SDS011;4038;42.612;23.066;2023-03-31T05:35:55;24.08;;;21.52;;
7985;SDS011;4038;42.612;23.066;2023-03-31T05:38:20;21.55;;;19.85;;
7985;SDS011;4038;42.612;23.066;2023-03-31T05:40:45;24.42;;;22.13;;
7985;SDS011;4038;42.612;23.066;2023-03-31T05:43:11;21.48;;;19.88;;
7985;SDS011;4038;42.612;23.066;2023-03-31T05:45:36;21.65;;;19.92;;
7985;SDS011;4038;42.612;23.066;2023-03-31T05:48:01;22.05;;;20.33;;
7985;SDS011;4038;42.612;23.066;2023-03-31T05:50:27;21.98;;;20.00;;
7985;SDS011;4038;42.612;23.066;2023-03-31T05:52:52;23.77;;;22.08;;
7985;SDS011;4038;42.612;23.066;2023-03-31T05:55:17;23.65;;;21.30;;
7985;SDS011;4038;42.612;23.066;2023-03-31T05:57:43;22.77;;;20.80;;
7985;SDS011;4038;42.612;23.066;2023-03-31T06:00:08;22.48;;;20.65;;
7985;SDS011;4038;42.612;23.066;2023-03-31T06:02:35;22.98;;;20.85;;
7985;SDS011;4038;42.612;23.066;2023-03-31T06:05:00;26.13;;;23.77;;
7985;SDS011;4038;42.612;23.066;2023-03-31T06:07:25;22.60;;;20.70;;
7985;SDS011;4038;42.612;23.066;2023-03-31T06:09:51;23.55;;;21.75;;
7985;SDS011;4038;42.612;23.066;2023-03-31T06:12:16;24.10;;;22.20;;
7985;SDS011;4038;42.612;23.066;2023-03-31T06:14:41;24.73;;;22.85;;
7985;SDS011;4038;42.612;23.066;2023-03-31T06:17:07;24.67;;;22.75;;
7985;SDS011;4038;42.612;23.066;2023-03-31T06:19:32;23.77;;;21.75;;
7985;SDS011;4038;42.612;23.066;2023-03-31T06:21:57;23.92;;;21.67;;
7985;SDS011;4038;42.612;23.066;2023-03-31T06:24:22;25.45;;;23.55;;
7985;SDS011;4038;42.612;23.066;2023-03-31T06:26:48;23.45;;;21.70;;
7985;SDS011;4038;42.612;23.066;2023-03-31T06:29:13;22.90;;;21.23;;
7985;SDS011;4038;42.612;23.066;2023-03-31T06:31:38;23.50;;;21.50;;
7985;SDS011;4038;42.612;23.066;2023-03-31T06:34:04;23.88;;;22.08;;
7985;SDS011;4038;42.612;23.066;2023-03-31T06:36:29;24.38;;;22.30;;
7985;SDS011;4038;42.612;23.066;2023-03-31T06:38:54;22.95;;;21.15;;
7985;SDS011;4038;42.612;23.066;2023-03-31T06:41:19;23.88;;;21.77;;
7985;SDS011;4038;42.612;23.066;2023-03-31T06:43:46;24.48;;;22.45;;
7985;SDS011;4038;42.612;23.066;2023-03-31T06:46:11;24.65;;;22.70;;
7985;SDS011;4038;42.612;23.066;2023-03-31T06:48:37;23.80;;;22.00;;
7985;SDS011;4038;42.612;23.066;2023-03-31T06:51:03;24.83;;;22.35;;
7985;SDS011;4038;42.612;23.066;2023-03-31T06:53:28;23.80;;;22.23;;
7985;SDS011;4038;42.612;23.066;2023-03-31T06:55:54;24.58;;;22.33;;
7985;SDS011;4038;42.612;23.066;2023-03-31T06:58:19;23.77;;;21.67;;
7985;SDS011;4038;42.612;23.066;2023-03-31T07:00:44;24.48;;;22.67;;
7985;SDS011;4038;42.612;23.066;2023-03-31T07:03:10;22.98;;;21.38;;
7985;SDS011;4038;42.612;23.066;2023-03-31T07:05:35;22.83;;;21.17;;
7985;SDS011;4038;42.612;23.066;2023-03-31T07:08:00;23.40;;;21.70;;
7985;SDS011;4038;42.612;23.066;2023-03-31T07:10:27;21.63;;;19.92;;
7985;SDS011;4038;42.612;23.066;2023-03-31T07:12:52;23.00;;;21.40;;
7985;SDS011;4038;42.612;23.066;2023-03-31T07:15:18;23.10;;;21.50;;
7985;SDS011;4038;42.612;23.066;2023-03-31T07:17:43;22.98;;;21.15;;
7985;SDS011;4038;42.612;23.066;2023-03-31T07:20:09;22.92;;;21.42;;
7985;SDS011;4038;42.612;23.066;2023-03-31T07:22:36;22.00;;;20.50;;
7985;SDS011;4038;42.612;23.066;2023-03-31T07:25:01;23.27;;;21.65;;
7985;SDS011;4038;42.612;23.066;2023-03-31T07:27:27;24.63;;;22.73;;
7985;SDS011;4038;42.612;23.066;2023-03-31T07:29:52;23.20;;;21.60;;
7985;SDS011;4038;42.612;23.066;2023-03-31T07:32:17;23.92;;;22.23;;
7985;SDS011;4038;42.612;23.066;2023-03-31T07:34:43;23.45;;;21.75;;
7985;SDS011;4038;42.612;23.066;2023-03-31T07:37:08;22.45;;;20.60;;
7985;SDS011;4038;42.612;23.066;2023-03-31T07:39:34;26.58;;;21.23;;
7985;SDS011;4038;42.612;23.066;2023-03-31T07:42:00;22.65;;;20.88;;
7985;SDS011;4038;42.612;23.066;2023-03-31T07:44:25;22.67;;;21.08;;
7985;SDS011;4038;42.612;23.066;2023-03-31T07:46:51;23.85;;;22.25;;
7985;SDS011;4038;42.612;23.066;2023-03-31T07:49:16;23.73;;;21.80;;
7985;SDS011;4038;42.612;23.066;2023-03-31T07:51:41;23.45;;;21.73;;
7985;SDS011;4038;42.612;23.066;2023-03-31T07:54:06;24.55;;;22.60;;
7985;SDS011;4038;42.612;23.066;2023-03-31T07:56:32;23.55;;;21.63;;
7985;SDS011;4038;42.612;23.066;2023-03-31T07:58:57;23.70;;;21.90;;
7985;SDS011;4038;42.612;23.066;2023-03-31T08:01:22;24.77;;;22.50;;
7985;SDS011;4038;42.612;23.066;2023-03-31T08:03:50;23.73;;;21.98;;
7985;SDS011;4038;42.612;23.066;2023-03-31T08:06:21;22.45;;;20.63;;
7985;SDS011;4038;42.612;23.066;2023-03-31T08:08:47;24.92;;;22.75;;
7985;SDS011;4038;42.612;23.066;2023-03-31T08:11:12;22.70;;;20.83;;
7985;SDS011;4038;42.612;23.066;2023-03-31T08:13:38;23.00;;;21.10;;
7985;SDS011;4038;42.612;23.066;2023-03-31T08:16:03;22.42;;;20.75;;
7985;SDS011;4038;42.612;23.066;2023-03-31T08:18:28;22.90;;;21.10;;
7985;SDS011;4038;42.612;23.066;2023-03-31T08:20:53;22.73;;;21.13;;
7985;SDS011;4038;42.612;23.066;2023-03-31T08:23:19;23.38;;;21.25;;
7985;SDS011;4038;42.612;23.066;2023-03-31T08:25:44;21.60;;;19.98;;
7985;SDS011;4038;42.612;23.066;2023-03-31T08:28:09;22.25;;;20.63;;
7985;SDS011;4038;42.612;23.066;2023-03-31T08:30:38;23.25;;;21.23;;
7985;SDS011;4038;42.612;23.066;2023-03-31T08:33:03;23.20;;;21.50;;
7985;SDS011;4038;42.612;23.066;2023-03-31T08:35:28;22.75;;;20.92;;
7985;SDS011;4038;42.612;23.066;2023-03-31T08:37:54;23.15;;;21.58;;
7985;SDS011;4038;42.612;23.066;2023-03-31T08:40:20;22.25;;;20.48;;
7985;SDS011;4038;42.612;23.066;2023-03-31T08:42:50;21.88;;;20.13;;
7985;SDS011;4038;42.612;23.066;2023-03-31T08:47:42;22.75;;;20.77;;
7985;SDS011;4038;42.612;23.066;2023-03-31T08:50:15;22.98;;;21.08;;
7985;SDS011;4038;42.612;23.066;2023-03-31T08:52:43;23.42;;;21.42;;
7985;SDS011;4038;42.612;23.066;2023-03-31T08:55:16;23.58;;;22.00;;
7985;SDS011;4038;42.612;23.066;2023-03-31T08:57:45;24.08;;;22.02;;
7985;SDS011;4038;42.612;23.066;2023-03-31T09:00:15;24.63;;;22.35;;
7985;SDS011;4038;42.612;23.066;2023-03-31T09:05:22;24.58;;;22.80;;
7985;SDS011;4038;42.612;23.066;2023-03-31T09:07:53;23.02;;;21.42;;
7985;SDS011;4038;42.612;23.066;2023-03-31T09:12:55;24.17;;;22.38;;
7985;SDS011;4038;42.612;23.066;2023-03-31T09:15:23;24.50;;;22.15;;
7985;SDS011;4038;42.612;23.066;2023-03-31T09:17:50;22.92;;;21.02;;
7985;SDS011;4038;42.612;23.066;2023-03-31T09:20:17;23.13;;;21.55;;
7985;SDS011;4038;42.612;23.066;2023-03-31T09:22:44;23.70;;;21.90;;
7985;SDS011;4038;42.612;23.066;2023-03-31T09:27:37;24.55;;;22.80;;
7985;SDS011;4038;42.612;23.066;2023-03-31T09:30:20;22.48;;;20.90;;
7985;SDS011;4038;42.612;23.066;2023-03-31T09:32:47;23.05;;;21.45;;
7985;SDS011;4038;42.612;23.066;2023-03-31T09:37:38;22.92;;;21.30;;
7985;SDS011;4038;42.612;23.066;2023-03-31T09:40:04;22.77;;;21.05;;
7985;SDS011;4038;42.612;23.066;2023-03-31T09:42:32;23.08;;;21.33;;
7985;SDS011;4038;42.612;23.066;2023-03-31T09:44:57;23.40;;;21.70;;
7985;SDS011;4038;42.612;23.066;2023-03-31T09:47:45;23.00;;;21.30;;
7985;SDS011;4038;42.612;23.066;2023-03-31T09:50:09;23.35;;;21.85;;
7985;SDS011;4038;42.612;23.066;2023-03-31T09:52:56;24.67;;;23.08;;
7985;SDS011;4038;42.612;23.066;2023-03-31T09:57:48;23.50;;;21.88;;
7985;SDS011;4038;42.612;23.066;2023-03-31T10:00:15;24.35;;;22.63;;
7985;SDS011;4038;42.612;23.066;2023-03-31T10:02:43;23.23;;;21.63;;
7985;SDS011;4038;42.612;23.066;2023-03-31T10:05:26;24.02;;;22.52;;
7985;SDS011;4038;42.612;23.066;2023-03-31T10:08:37;25.58;;;23.92;;
7985;SDS011;4038;42.612;23.066;2023-03-31T10:10:38;25.42;;;23.63;;
7985;SDS011;4038;42.612;23.066;2023-03-31T10:13:08;24.40;;;22.60;;
7985;SDS011;4038;42.612;23.066;2023-03-31T10:15:37;25.40;;;23.70;;
7985;SDS011;4038;42.612;23.066;2023-03-31T10:18:03;25.38;;;23.52;;
7985;SDS011;4038;42.612;23.066;2023-03-31T10:20:33;24.73;;;23.13;;
7985;SDS011;4038;42.612;23.066;2023-03-31T10:23:01;25.20;;;23.58;;
7985;SDS011;4038;42.612;23.066;2023-03-31T10:25:27;25.65;;;23.85;;
7985;SDS011;4038;42.612;23.066;2023-03-31T10:27:52;24.42;;;22.80;;
7985;SDS011;4038;42.612;23.066;2023-03-31T10:30:27;23.45;;;21.85;;
7985;SDS011;4038;42.612;23.066;2023-03-31T10:32:54;24.77;;;23.08;;
7985;SDS011;4038;42.612;23.066;2023-03-31T10:35:29;26.00;;;24.23;;
7985;SDS011;4038;42.612;23.066;2023-03-31T10:37:57;25.17;;;23.45;;
7985;SDS011;4038;42.612;23.066;2023-03-31T10:40:24;22.73;;;21.23;;
7985;SDS011;4038;42.612;23.066;2023-03-31T10:42:57;23.80;;;21.65;;
7985;SDS011;4038;42.612;23.066;2023-03-31T10:45:26;24.00;;;22.23;;
7985;SDS011;4038;42.612;23.066;2023-03-31T10:47:53;23.30;;;21.80;;
7985;SDS011;4038;42.612;23.066;2023-03-31T10:50:19;23.65;;;22.05;;
7985;SDS011;4038;42.612;23.066;2023-03-31T10:52:50;25.25;;;23.45;;
7985;SDS011;4038;42.612;23.066;2023-03-31T10:55:21;32.25;;;29.85;;
7985;SDS011;4038;42.612;23.066;2023-03-31T10:57:54;25.33;;;23.55;;
7985;SDS011;4038;42.612;23.066;2023-03-31T11:20:48;24.17;;;22.70;;
7985;SDS011;4038;42.612;23.066;2023-03-31T11:26:04;23.77;;;22.02;;
7985;SDS011;4038;42.612;23.066;2023-03-31T11:31:23;24.70;;;22.83;;
7985;SDS011;4038;42.612;23.066;2023-03-31T11:33:56;24.73;;;23.13;;
7985;SDS011;4038;42.612;23.066;2023-03-31T11:41:20;25.05;;;23.42;;
7985;SDS011;4038;42.612;23.066;2023-03-31T11:43:47;23.60;;;21.95;;
7985;SDS011;4038;42.612;23.066;2023-03-31T11:46:21;23.60;;;22.00;;
7985;SDS011;4038;42.612;23.066;2023-03-31T11:48:58;24.00;;;22.40;;
7985;SDS011;4038;42.612;23.066;2023-03-31T11:51:32;24.08;;;22.48;;
7985;SDS011;4038;42.612;23.066;2023-03-31T11:53:59;24.00;;;22.40;;
7985;SDS011;4038;42.612;23.066;2023-03-31T11:56:29;25.50;;;23.65;;
7985;SDS011;4038;42.612;23.066;2023-03-31T11:59:00;24.38;;;22.73;;
7985;SDS011;4038;42.612;23.066;2023-03-31T12:01:29;25.48;;;23.70;;
7985;SDS011;4038;42.612;23.066;2023-03-31T12:04:05;24.45;;;22.58;;
7985;SDS011;4038;42.612;23.066;2023-03-31T12:06:32;23.08;;;21.67;;
7985;SDS011;4038;42.612;23.066;2023-03-31T12:16:45;23.30;;;21.77;;
7985;SDS011;4038;42.612;23.066;2023-03-31T12:19:24;23.27;;;21.38;;
7985;SDS011;4038;42.612;23.066;2023-03-31T12:22:14;23.95;;;22.33;;
7985;SDS011;4038;42.612;23.066;2023-03-31T12:24:37;23.55;;;21.95;;
7985;SDS011;4038;42.612;23.066;2023-03-31T12:29:35;24.83;;;23.33;;
7985;SDS011;4038;42.612;23.066;2023-03-31T12:32:03;22.83;;;21.35;;
7985;SDS011;4038;42.612;23.066;2023-03-31T12:34:30;22.50;;;21.02;;
7985;SDS011;4038;42.612;23.066;2023-03-31T12:44:55;23.50;;;21.80;;
7985;SDS011;4038;42.612;23.066;2023-03-31T12:57:36;25.65;;;23.95;;
7985;SDS011;4038;42.612;23.066;2023-03-31T13:02:31;24.75;;;23.02;;
7985;SDS011;4038;42.612;23.066;2023-03-31T13:04:56;25.98;;;24.10;;
7985;SDS011;4038;42.612;23.066;2023-03-31T13:09:50;25.42;;;23.63;;
7985;SDS011;4038;42.612;23.066;2023-03-31T13:12:20;24.67;;;23.08;;
7985;SDS011;4038;42.612;23.066;2023-03-31T13:14:47;25.38;;;23.63;;
7985;SDS011;4038;42.612;23.066;2023-03-31T13:17:29;25.00;;;23.40;;
7985;SDS011;4038;42.612;23.066;2023-03-31T13:19:56;25.02;;;23.40;;
7985;SDS011;4038;42.612;23.066;2023-03-31T13:22:28;24.52;;;22.83;;
7985;SDS011;4038;42.612;23.066;2023-03-31T13:25:23;24.05;;;22.33;;
7985;SDS011;4038;42.612;23.066;2023-03-31T13:27:47;24.50;;;22.95;;
7985;SDS011;4038;42.612;23.066;2023-03-31T13:33:13;23.70;;;22.00;;
7985;SDS011;4038;42.612;23.066;2023-03-31T13:35:39;23.13;;;21.55;;
7985;SDS011;4038;42.612;23.066;2023-03-31T13:51:17;22.55;;;20.67;;
7985;SDS011;4038;42.612;23.066;2023-03-31T13:54:05;22.52;;;20.85;;
7985;SDS011;4038;42.612;23.066;2023-03-31T13:56:47;22.90;;;21.20;;
7985;SDS011;4038;42.612;23.066;2023-03-31T14:04:27;22.42;;;20.60;;
7985;SDS011;4038;42.612;23.066;2023-03-31T14:09:43;22.50;;;20.83;;
7985;SDS011;4038;42.612;23.066;2023-03-31T14:14:45;22.88;;;20.88;;
7985;SDS011;4038;42.612;23.066;2023-03-31T14:17:11;23.42;;;21.80;;
7985;SDS011;4038;42.612;23.066;2023-03-31T14:32:43;22.83;;;21.13;;
7985;SDS011;4038;42.612;23.066;2023-03-31T14:35:23;23.08;;;21.42;;
7985;SDS011;4038;42.612;23.066;2023-03-31T14:37:51;23.15;;;21.25;;
7985;SDS011;4038;42.612;23.066;2023-03-31T14:40:17;23.02;;;20.98;;
7985;SDS011;4038;42.612;23.066;2023-03-31T14:42:43;22.25;;;20.55;;
7985;SDS011;4038;42.612;23.066;2023-03-31T14:45:29;22.13;;;20.52;;
7985;SDS011;4038;42.612;23.066;2023-03-31T14:48:02;24.60;;;22.70;;
7985;SDS011;4038;42.612;23.066;2023-03-31T14:50:29;23.13;;;21.25;;
7985;SDS011;4038;42.612;23.066;2023-03-31T14:52:57;22.00;;;20.20;;
7985;SDS011;4038;42.612;23.066;2023-03-31T14:55:25;22.90;;;21.10;;
7985;SDS011;4038;42.612;23.066;2023-03-31T14:57:51;23.45;;;21.77;;
7985;SDS011;4038;42.612;23.066;2023-03-31T15:00:27;22.40;;;20.80;;
7985;SDS011;4038;42.612;23.066;2023-03-31T15:02:52;23.75;;;21.83;;
7985;SDS011;4038;42.612;23.066;2023-03-31T15:05:24;22.13;;;20.52;;
7985;SDS011;4038;42.612;23.066;2023-03-31T15:07:55;22.85;;;21.05;;
7985;SDS011;4038;42.612;23.066;2023-03-31T15:10:21;23.40;;;21.58;;
7985;SDS011;4038;42.612;23.066;2023-03-31T15:12:47;22.77;;;20.77;;
7985;SDS011;4038;42.612;23.066;2023-03-31T15:15:12;23.05;;;21.35;;
7985;SDS011;4038;42.612;23.066;2023-03-31T15:17:42;24.35;;;22.45;;
7985;SDS011;4038;42.612;23.066;2023-03-31T15:20:24;23.27;;;21.58;;
7985;SDS011;4038;42.612;23.066;2023-03-31T15:22:50;22.58;;;20.67;;
7985;SDS011;4038;42.612;23.066;2023-03-31T15:25:15;22.88;;;21.25;;
7985;SDS011;4038;42.612;23.066;2023-03-31T15:27:49;22.42;;;20.80;;
7985;SDS011;4038;42.612;23.066;2023-03-31T15:30:20;24.23;;;22.33;;
7985;SDS011;4038;42.612;23.066;2023-03-31T15:32:45;24.60;;;22.83;;
7985;SDS011;4038;42.612;23.066;2023-03-31T15:35:21;25.30;;;23.30;;
7985;SDS011;4038;42.612;23.066;2023-03-31T15:37:47;23.80;;;21.88;;
7985;SDS011;4038;42.612;23.066;2023-03-31T15:42:41;24.45;;;22.50;;
7985;SDS011;4038;42.612;23.066;2023-03-31T15:47:51;25.10;;;23.48;;
7985;SDS011;4038;42.612;23.066;2023-03-31T15:50:16;25.23;;;23.42;;
7985;SDS011;4038;42.612;23.066;2023-03-31T15:52:47;24.90;;;23.00;;
7985;SDS011;4038;42.612;23.066;2023-03-31T15:57:50;24.02;;;22.33;;
7985;SDS011;4038;42.612;23.066;2023-03-31T16:03:01;25.02;;;23.23;;
7985;SDS011;4038;42.612;23.066;2023-03-31T16:07:52;23.02;;;21.40;;
7985;SDS011;4038;42.612;23.066;2023-03-31T16:10:18;24.63;;;22.55;;
7985;SDS011;4038;42.612;23.066;2023-03-31T16:12:56;23.38;;;21.65;;
7985;SDS011;4038;42.612;23.066;2023-03-31T16:15:32;23.02;;;21.33;;
7985;SDS011;4038;42.612;23.066;2023-03-31T16:18:02;23.55;;;21.73;;
7985;SDS011;4038;42.612;23.066;2023-03-31T16:20:32;23.20;;;21.50;;
7985;SDS011;4038;42.612;23.066;2023-03-31T16:23:10;23.50;;;21.65;;
7985;SDS011;4038;42.612;23.066;2023-03-31T16:25:37;22.55;;;20.75;;
7985;SDS011;4038;42.612;23.066;2023-03-31T16:28:03;22.27;;;20.48;;
7985;SDS011;4038;42.612;23.066;2023-03-31T16:30:33;21.40;;;19.90;;
7985;SDS011;4038;42.612;23.066;2023-03-31T16:33:00;22.30;;;20.70;;
7985;SDS011;4038;42.612;23.066;2023-03-31T16:35:29;23.40;;;21.58;;
7985;SDS011;4038;42.612;23.066;2023-03-31T16:37:55;24.08;;;21.98;;
7985;SDS011;4038;42.612;23.066;2023-03-31T16:40:20;24.33;;;22.40;;
7985;SDS011;4038;42.612;23.066;2023-03-31T16:42:45;26.17;;;23.88;;
7985;SDS011;4038;42.612;23.066;2023-03-31T16:45:10;26.70;;;24.20;;
7985;SDS011;4038;42.612;23.066;2023-03-31T16:47:37;25.50;;;23.20;;
7985;SDS011;4038;42.612;23.066;2023-03-31T16:50:03;28.13;;;25.90;;
7985;SDS011;4038;42.612;23.066;2023-03-31T16:52:31;25.92;;;23.92;;
7985;SDS011;4038;42.612;23.066;2023-03-31T16:54:56;26.33;;;23.83;;
7985;SDS011;4038;42.612;23.066;2023-03-31T16:57:21;26.25;;;24.13;;
7985;SDS011;4038;42.612;23.066;2023-03-31T16:59:47;27.85;;;25.75;;
7985;SDS011;4038;42.612;23.066;2023-03-31T17:02:12;27.00;;;24.95;;
7985;SDS011;4038;42.612;23.066;2023-03-31T17:04:37;29.17;;;26.77;;
7985;SDS011;4038;42.612;23.066;2023-03-31T17:07:04;29.55;;;27.40;;
7985;SDS011;4038;42.612;23.066;2023-03-31T17:09:29;26.73;;;24.83;;
7985;SDS011;4038;42.612;23.066;2023-03-31T17:11:54;28.52;;;26.33;;
7985;SDS011;4038;42.612;23.066;2023-03-31T17:14:20;27.67;;;25.58;;
7985;SDS011;4038;42.612;23.066;2023-03-31T17:16:45;25.50;;;23.60;;
7985;SDS011;4038;42.612;23.066;2023-03-31T17:19:11;26.70;;;24.60;;
7985;SDS011;4038;42.612;23.066;2023-03-31T17:21:36;24.25;;;22.33;;
7985;SDS011;4038;42.612;23.066;2023-03-31T17:24:04;24.88;;;23.13;;
7985;SDS011;4038;42.612;23.066;2023-03-31T17:26:30;24.10;;;22.20;;
7985;SDS011;4038;42.612;23.066;2023-03-31T17:28:56;24.23;;;22.38;;
7985;SDS011;4038;42.612;23.066;2023-03-31T17:31:21;24.30;;;22.17;;
7985;SDS011;4038;42.612;23.066;2023-03-31T17:33:46;26.35;;;24.10;;
7985;SDS011;4038;42.612;23.066;2023-03-31T17:36:12;24.83;;;23.13;;
7985;SDS011;4038;42.612;23.066;2023-03-31T17:38:38;25.92;;;24.02;;
7985;SDS011;4038;42.612;23.066;2023-03-31T17:41:04;23.90;;;22.08;;